Time;durP1;ratioP1;P1;durP2;ratioP2;P2;SDS_P1;SDS_P2;PMS_P1;PMS_P2;Temp;Humidity;BMP_temperature;BMP_pressure;BME280_temperature;BME280_humidity;BME280_pressure;Samples;Min_cycle;Max_cycle;Signal;HPM_P1;HPM_P2
2023/05/29 00:00:17;;;;;;;7.00;5.80;;;;;;;18.49;100.00;101359.28;2066992;28;20572;-62
2023/05/29 00:01:18;;;;;;;7.20;5.37;;;;;;;18.51;100.00;101360.38;2068893;28;20192;-62
2023/05/29 00:02:18;;;;;;;7.57;5.53;;;;;;;18.56;100.00;101367.38;2072720;28;20443;-62
2023/05/29 00:03:19;;;;;;;10.23;5.73;;;;;;;18.54;100.00;101361.47;2072554;28;20187;-62
2023/05/29 00:04:21;;;;;;;6.13;5.53;;;;;;;18.55;100.00;101365.81;2079902;28;20220;-62
2023/05/29 00:05:22;;;;;;;8.17;5.43;;;;;;;18.56;100.00;101365.38;2079866;28;20263;-62
2023/05/29 00:06:24;;;;;;;9.07;5.70;;;;;;;18.55;100.00;101363.03;2069505;28;20435;-62
2023/05/29 00:07:25;;;;;;;7.50;5.57;;;;;;;18.55;100.00;101361.00;2065321;28;20705;-62
2023/05/29 00:08:25;;;;;;;9.30;5.80;;;;;;;18.55;100.00;101361.00;2064850;28;20431;-62
2023/05/29 00:09:26;;;;;;;8.03;5.83;;;;;;;18.56;100.00;101358.97;2076984;28;20455;-62
2023/05/29 00:10:26;;;;;;;9.17;5.37;;;;;;;18.56;100.00;101361.75;2075816;28;20196;-62
2023/05/29 00:11:27;;;;;;;9.47;6.00;;;;;;;18.55;100.00;101360.22;2064433;28;20200;-62
2023/05/29 00:12:27;;;;;;;10.17;5.87;;;;;;;18.54;100.00;101367.09;2066297;28;20170;-62
2023/05/29 00:13:27;;;;;;;8.30;5.70;;;;;;;18.48;100.00;101352.88;2072299;28;20285;-62
2023/05/29 00:14:28;;;;;;;9.70;5.47;;;;;;;18.54;100.00;101362.25;2072374;28;20182;-61
2023/05/29 00:15:30;;;;;;;8.37;5.60;;;;;;;18.52;100.00;101358.38;2064876;28;20216;-62
2023/05/29 00:16:30;;;;;;;8.97;6.40;;;;;;;18.51;100.00;101362.41;2071294;28;20690;-62
2023/05/29 00:17:34;;;;;;;8.60;6.83;;;;;;;18.52;100.00;101367.53;2072346;28;20454;-61
2023/05/29 00:18:45;;;;;;;10.50;6.70;;;;;;;18.54;100.00;101369.88;2068474;28;20212;-62
2023/05/29 00:19:45;;;;;;;11.57;6.80;;;;;;;18.55;100.00;101368.63;2068595;28;20448;-61
2023/05/29 00:20:45;;;;;;;12.70;6.80;;;;;;;18.56;100.00;101362.56;2072236;28;20432;-62
2023/05/29 00:21:49;;;;;;;8.60;6.10;;;;;;;18.57;100.00;101366.16;2070142;28;20239;-61
2023/05/29 00:22:50;;;;;;;7.23;6.20;;;;;;;18.57;100.00;101361.31;2066084;28;20181;-62
2023/05/29 00:23:50;;;;;;;11.57;6.00;;;;;;;18.01;100.00;101276.81;2072279;28;20934;-62
2023/05/29 00:24:50;;;;;;;10.20;6.00;;;;;;;18.55;100.00;101363.03;2064431;28;20169;-63
2023/05/29 00:25:51;;;;;;;8.13;6.00;;;;;;;18.53;100.00;101369.09;2064126;28;20717;-61
2023/05/29 00:26:51;;;;;;;10.27;6.17;;;;;;;18.54;100.00;101365.06;2064605;28;20198;-61
2023/05/29 00:27:52;;;;;;;7.80;6.23;;;;;;;18.55;100.00;101363.03;2064246;28;20585;-62
2023/05/29 00:28:52;;;;;;;8.40;6.00;;;;;;;18.55;100.00;101366.63;2064414;28;20644;-61
2023/05/29 00:29:52;;;;;;;7.90;6.10;;;;;;;18.56;100.00;101368.16;2064287;28;20738;-61
2023/05/29 00:30:53;;;;;;;8.50;6.20;;;;;;;18.55;100.00;101366.63;2063712;28;20566;-62
2023/05/29 00:31:53;;;;;;;10.47;7.00;;;;;;;18.52;100.00;101364.75;2064324;28;20173;-61
2023/05/29 00:32:54;;;;;;;11.17;6.47;;;;;;;18.53;100.00;101365.53;2064716;28;20210;-62
2023/05/29 00:33:54;;;;;;;7.27;6.20;;;;;;;18.37;100.00;101346.22;2064361;28;20199;-62
2023/05/29 00:34:55;;;;;;;9.07;6.50;;;;;;;18.51;100.00;101370.81;2064065;28;20184;-61
2023/05/29 00:35:56;;;;;;;10.93;6.33;;;;;;;18.51;100.00;101368.78;2069255;28;20216;-62
2023/05/29 00:36:56;;;;;;;8.40;6.20;;;;;;;17.51;100.00;101212.94;2072556;28;20558;-62
2023/05/29 00:37:58;;;;;;;7.13;6.43;;;;;;;18.50;100.00;101369.25;2072641;28;20177;-61
2023/05/29 00:38:58;;;;;;;11.17;6.13;;;;;;;18.50;100.00;101367.25;2070897;28;20206;-62
2023/05/29 00:39:58;;;;;;;7.83;6.03;;;;;;;18.50;100.00;101372.06;2063817;28;20973;-62
2023/05/29 00:40:59;;;;;;;7.80;5.83;;;;;;;18.49;100.00;101371.31;2071598;28;20280;-62
2023/05/29 00:41:59;;;;;;;12.17;6.50;;;;;;;18.48;100.00;101375.34;2065756;28;20214;-62
2023/05/29 00:43:00;;;;;;;7.50;6.40;;;;;;;18.49;100.00;101367.72;2069669;28;20185;-62
2023/05/29 00:44:00;;;;;;;7.60;5.77;;;;;;;18.50;100.00;101367.25;2068475;28;20573;-62
2023/05/29 00:45:00;;;;;;;6.67;5.97;;;;;;;18.50;100.00;101370.06;2066964;28;20225;-62
2023/05/29 00:46:01;;;;;;;8.40;6.10;;;;;;;18.51;100.00;101373.63;2072342;28;20170;-61
2023/05/29 00:47:02;;;;;;;11.03;6.30;;;;;;;18.50;100.00;101367.25;2072604;28;20199;-61
2023/05/29 00:48:07;;;;;;;6.73;6.03;;;;;;;18.48;100.00;101372.53;2072486;28;20663;-62
2023/05/29 00:49:07;;;;;;;10.87;6.03;;;;;;;18.49;100.00;101368.50;2072084;28;20185;-62
2023/05/29 00:50:13;;;;;;;7.50;5.67;;;;;;;18.52;100.00;101367.53;2078375;28;20869;-62
2023/05/29 00:51:15;;;;;;;9.60;5.80;;;;;;;18.18;100.00;101318.09;2065892;28;20674;-62
2023/05/29 00:52:15;;;;;;;6.90;5.63;;;;;;;18.50;100.00;101372.84;2064319;28;20870;-61
2023/05/29 00:53:16;;;;;;;10.33;6.20;;;;;;;18.50;100.00;101375.66;2064380;28;20457;-61
2023/05/29 00:54:21;;;;;;;9.40;6.33;;;;;;;18.51;100.00;101363.19;2064297;28;20236;-62
2023/05/29 00:55:22;;;;;;;9.47;5.57;;;;;;;18.02;100.00;101293.19;2064156;28;20177;-62
2023/05/29 00:56:23;;;;;;;9.33;6.20;;;;;;;18.46;100.00;101366.63;2064333;28;20806;-62
2023/05/29 00:57:23;;;;;;;10.33;6.23;;;;;;;18.46;100.00;101365.81;2064371;28;20417;-61
2023/05/29 00:58:24;;;;;;;6.33;5.70;;;;;;;17.94;100.00;101302.38;2072564;28;20180;-61
2023/05/29 00:59:29;;;;;;;9.93;6.03;;;;;;;17.98;100.00;101280.56;2072381;28;20194;-61
2023/05/29 01:00:30;;;;;;;9.03;6.13;;;;;;;18.49;100.00;101360.09;2072296;28;20201;-61
2023/05/29 01:01:32;;;;;;;11.47;6.13;;;;;;;18.48;100.00;101352.13;2072117;28;20504;-62
2023/05/29 01:02:32;;;;;;;10.27;6.27;;;;;;;18.47;100.00;101354.13;2072618;28;20547;-61
2023/05/29 01:03:35;;;;;;;7.97;5.67;;;;;;;18.46;100.00;101352.59;2072213;28;20449;-62
2023/05/29 01:04:36;;;;;;;10.80;5.80;;;;;;;18.46;100.00;101357.41;2072108;28;20731;-61
2023/05/29 01:05:36;;;;;;;9.30;6.63;;;;;;;18.45;100.00;101350.25;2070627;28;20439;-61
2023/05/29 01:06:37;;;;;;;8.20;5.83;;;;;;;18.44;100.00;101355.09;2071042;28;20197;-62
2023/05/29 01:07:38;;;;;;;10.30;5.37;;;;;;;17.90;100.00;101278.56;2072494;28;20181;-62
2023/05/29 01:08:38;;;;;;;13.47;5.23;;;;;;;18.32;100.00;101352.41;2064807;28;20272;-62
2023/05/29 01:09:40;;;;;;;8.57;5.43;;;;;;;17.86;100.00;101286.31;2064378;28;20435;-62
2023/05/29 01:10:42;;;;;;;9.17;6.17;;;;;;;18.22;100.00;101348.81;2064115;28;20204;-61
2023/05/29 01:11:55;;;;;;;16.00;5.53;;;;;;;18.22;100.00;101350.84;2064327;28;20437;-62
2023/05/29 01:13:23;;;;;;;8.40;5.83;;;;;;;18.19;100.00;101346.94;2064550;28;20891;-62
2023/05/29 01:14:45;;;;;;;7.40;5.63;;;;;;;18.12;100.00;101352.84;2064061;28;20753;-62
2023/05/29 01:15:50;;;;;;;12.33;5.83;;;;;;;17.99;100.00;101341.78;2072129;28;20425;-61
2023/05/29 01:17:03;;;;;;;8.40;5.77;;;;;;;18.05;100.00;101353.16;2072380;28;20540;-62
2023/05/29 01:18:26;;;;;;;11.07;5.83;;;;;;;18.07;100.00;101347.09;2064336;28;20459;-62
2023/05/29 01:19:38;;;;;;;10.00;6.20;;;;;;;18.03;100.00;101344.44;2064311;28;20424;-62
2023/05/29 01:20:47;;;;;;;7.70;6.10;;;;;;;17.60;100.00;101277.41;2063787;28;20847;-62
2023/05/29 01:22:06;;;;;;;16.33;6.50;;;;;;;17.98;100.00;101344.28;2072095;28;20439;-62
2023/05/29 01:23:25;;;;;;;11.00;5.57;;;;;;;17.97;100.00;101339.91;2070751;28;20414;-62
2023/05/29 01:24:55;;;;;;;10.27;5.50;;;;;;;17.90;100.00;101341.00;2063954;28;20429;-61
2023/05/29 01:26:01;;;;;;;9.33;6.13;;;;;;;17.37;100.00;101266.75;2069903;28;20440;-61
2023/05/29 01:27:07;;;;;;;12.33;5.60;;;;;;;17.68;100.00;101327.09;2067231;28;20422;-62
2023/05/29 01:28:09;;;;;;;9.73;5.40;;;;;;;17.78;100.00;101339.88;2064158;28;20493;-61
2023/05/29 01:29:13;;;;;;;11.40;5.70;;;;;;;17.23;100.00;101251.31;2077182;28;20439;-62
2023/05/29 01:30:15;;;;;;;10.80;5.80;;;;;;;17.86;100.00;101339.59;2069247;28;20458;-62
2023/05/29 01:31:19;;;;;;;10.90;6.20;;;;;;;17.72;100.00;101318.56;2065961;28;20504;-62
2023/05/29 01:32:20;;;;;;;7.63;5.70;;;;;;;17.75;100.00;101328.06;2071320;28;20424;-62
2023/05/29 01:33:21;;;;;;;6.77;5.97;;;;;;;17.83;100.00;101338.50;2064082;28;21066;-62
2023/05/29 01:34:21;;;;;;;10.47;6.10;;;;;;;17.78;100.00;101345.50;2072269;28;20804;-62
2023/05/29 01:35:22;;;;;;;10.40;6.10;;;;;;;17.78;100.00;101342.69;2071968;28;20187;-62
2023/05/29 01:36:23;;;;;;;15.43;5.63;;;;;;;17.77;100.00;101342.38;2072425;28;20693;-62
2023/05/29 01:37:24;;;;;;;8.47;6.00;;;;;;;17.74;100.00;101338.47;2067173;28;20213;-62
2023/05/29 01:38:24;;;;;;;8.00;6.07;;;;;;;17.77;100.00;101336.78;2068843;28;20456;-62
2023/05/29 01:39:26;;;;;;;9.17;6.20;;;;;;;17.72;100.00;101338.19;2073574;28;20205;-61
2023/05/29 01:40:26;;;;;;;11.00;5.90;;;;;;;17.73;100.00;101348.16;2073359;28;20178;-62
2023/05/29 01:41:28;;;;;;;10.80;6.50;;;;;;;17.52;100.00;101316.16;2073156;28;20472;-62
2023/05/29 01:42:29;;;;;;;8.57;5.83;;;;;;;17.73;100.00;101346.09;2065794;28;20262;-62
2023/05/29 01:43:31;;;;;;;7.23;6.10;;;;;;;17.74;100.00;101335.69;2073481;28;20441;-62
2023/05/29 01:44:31;;;;;;;9.43;5.90;;;;;;;17.74;100.00;101338.47;2073544;28;20652;-62
2023/05/29 01:45:32;;;;;;;9.53;6.30;;;;;;;17.77;100.00;101342.38;2068537;28;20836;-61
2023/05/29 01:46:32;;;;;;;6.57;5.97;;;;;;;17.73;100.00;101339.72;2069427;28;20205;-62
2023/05/29 01:47:34;;;;;;;7.70;6.27;;;;;;;17.73;100.00;101334.88;2070973;28;20250;-61
2023/05/29 01:48:35;;;;;;;11.50;5.57;;;;;;;17.34;100.00;101279.66;2067356;28;20261;-62
2023/05/29 01:49:37;;;;;;;9.80;5.73;;;;;;;17.73;100.00;101346.09;2072860;28;20422;-62
2023/05/29 01:50:38;;;;;;;8.40;5.60;;;;;;;17.76;100.00;101350.00;2065309;28;20418;-61
2023/05/29 01:51:40;;;;;;;8.43;5.63;;;;;;;17.36;100.00;101288.38;2065335;28;20459;-62
2023/05/29 01:52:42;;;;;;;14.53;6.20;;;;;;;17.77;100.00;101348.78;2065782;28;20996;-62
2023/05/29 01:53:43;;;;;;;7.40;5.50;;;;;;;17.76;100.00;101344.41;2065312;28;20455;-62
2023/05/29 01:54:44;;;;;;;7.30;5.33;;;;;;;17.78;100.00;101342.69;2065095;28;20444;-62
2023/05/29 01:55:45;;;;;;;8.77;5.47;;;;;;;17.81;100.00;101343.03;2065560;28;20434;-62
2023/05/29 01:56:46;;;;;;;10.10;5.57;;;;;;;17.82;100.00;101339.75;2067949;28;20723;-62
2023/05/29 01:57:48;;;;;;;11.47;6.13;;;;;;;17.65;100.00;101318.84;2073387;28;20195;-62
2023/05/29 01:58:50;;;;;;;11.37;5.47;;;;;;;17.85;100.00;101344.41;2073444;28;21031;-62
2023/05/29 01:59:51;;;;;;;10.83;6.13;;;;;;;17.80;100.00;101347.06;2065564;28;20420;-63
2023/05/29 02:00:52;;;;;;;8.47;5.87;;;;;;;17.80;100.00;101350.63;2064980;28;20444;-62
2023/05/29 02:01:52;;;;;;;10.17;5.90;;;;;;;17.00;100.00;101225.88;2071473;28;20222;-62
2023/05/29 02:02:53;;;;;;;9.27;6.03;;;;;;;17.83;100.00;101343.31;2073582;28;20269;-62
2023/05/29 02:03:53;;;;;;;8.63;5.67;;;;;;;17.84;100.00;101345.66;2069725;28;20216;-62
2023/05/29 02:04:53;;;;;;;10.17;5.93;;;;;;;17.86;100.00;101348.00;2067964;28;20200;-62
2023/05/29 02:05:55;;;;;;;9.17;5.73;;;;;;;17.82;100.00;101336.94;2072745;28;20170;-62
2023/05/29 02:06:56;;;;;;;9.77;5.50;;;;;;;17.89;100.00;101336.63;2073563;28;20180;-62
2023/05/29 02:07:56;;;;;;;6.77;5.70;;;;;;;17.91;100.00;101341.78;2073479;28;20974;-62
2023/05/29 02:08:56;;;;;;;9.93;6.07;;;;;;;17.90;100.00;101345.84;2066243;28;20182;-61
2023/05/29 02:09:57;;;;;;;11.03;5.80;;;;;;;17.91;100.00;101347.41;2071766;28;20190;-62
2023/05/29 02:10:57;;;;;;;14.60;6.33;;;;;;;17.91;100.00;101341.78;2073317;28;20244;-62
2023/05/29 02:11:58;;;;;;;8.90;5.90;;;;;;;17.82;100.00;101319.34;2069379;28;20216;-62
2023/05/29 02:12:58;;;;;;;10.93;6.07;;;;;;;17.87;100.00;101332.75;2065373;28;20185;-62
2023/05/29 02:14:02;;;;;;;11.87;6.67;;;;;;;17.92;100.00;101339.28;2064976;28;20179;-62
2023/05/29 02:15:02;;;;;;;10.97;6.27;;;;;;;17.94;100.00;101339.59;2065772;28;20189;-62
2023/05/29 02:16:03;;;;;;;12.27;6.30;;;;;;;17.94;100.00;101338.84;2073626;28;20954;-62
2023/05/29 02:17:04;;;;;;;11.63;5.83;;;;;;;17.94;100.00;101336.03;2065665;28;20843;-62
2023/05/29 02:18:04;;;;;;;9.90;6.27;;;;;;;17.96;100.00;101341.94;2065931;28;20182;-62
2023/05/29 02:19:05;;;;;;;10.53;5.80;;;;;;;17.98;100.00;101347.09;2070277;28;20589;-62
2023/05/29 02:20:07;;;;;;;15.60;6.20;;;;;;;17.97;100.00;101337.88;2072930;28;20200;-62
2023/05/29 02:21:08;;;;;;;7.03;5.53;;;;;;;17.95;100.00;101337.56;2073493;28;20672;-63
2023/05/29 02:22:08;;;;;;;10.30;5.97;;;;;;;17.98;100.00;101341.47;2071830;28;20428;-63
2023/05/29 02:23:09;;;;;;;12.50;6.23;;;;;;;17.73;100.00;101318.06;2065701;28;20465;-62
2023/05/29 02:24:09;;;;;;;8.70;5.60;;;;;;;17.92;100.00;101346.16;2073460;28;20188;-62
2023/05/29 02:25:10;;;;;;;8.43;5.73;;;;;;;17.36;100.00;101262.41;2073149;28;20193;-62
2023/05/29 02:26:13;;;;;;;7.30;5.00;;;;;;;17.86;100.00;101340.38;2080866;28;20204;-62
2023/05/29 02:27:13;;;;;;;8.03;5.20;;;;;;;17.45;100.00;101276.44;2075187;28;20189;-61
2023/05/29 02:28:14;;;;;;;10.87;5.23;;;;;;;17.88;100.00;101331.50;2069504;28;20451;-62
2023/05/29 02:29:14;;;;;;;8.03;5.23;;;;;;;17.79;100.00;101326.66;2073422;28;20186;-62
2023/05/29 02:30:15;;;;;;;7.50;4.90;;;;;;;17.92;100.00;101344.13;2072949;28;20181;-62
2023/05/29 02:31:15;;;;;;;15.43;6.23;;;;;;;17.92;100.00;101344.91;2073200;28;20178;-62
2023/05/29 02:32:16;;;;;;;9.20;4.97;;;;;;;17.89;100.00;101342.25;2064699;28;20272;-62
2023/05/29 02:33:16;;;;;;;10.83;4.83;;;;;;;17.90;100.00;101349.41;2064889;28;20194;-62
2023/05/29 02:34:17;;;;;;;6.97;4.50;;;;;;;17.91;100.00;101339.00;2070610;28;20197;-63
2023/05/29 02:35:20;;;;;;;10.97;5.10;;;;;;;17.88;100.00;101347.06;2073026;28;20296;-62
2023/05/29 02:36:21;;;;;;;16.57;4.77;;;;;;;17.88;100.00;101335.09;2069323;28;20217;-62
2023/05/29 02:37:25;;;;;;;11.97;5.27;;;;;;;17.90;100.00;101341.00;2067816;28;20524;-61
2023/05/29 02:38:25;;;;;;;10.00;4.60;;;;;;;17.90;100.00;101343.81;2073414;28;20182;-62
2023/05/29 02:39:26;;;;;;;10.43;4.67;;;;;;;17.92;100.00;101332.91;2073064;28;20453;-62
2023/05/29 02:40:26;;;;;;;14.27;5.53;;;;;;;17.94;100.00;101347.25;2073008;28;20188;-62
2023/05/29 02:41:26;;;;;;;12.63;4.50;;;;;;;17.92;100.00;101341.34;2072980;28;20246;-62
2023/05/29 02:42:27;;;;;;;13.40;5.10;;;;;;;17.92;100.00;101344.91;2066571;28;20183;-63
2023/05/29 02:43:27;;;;;;;16.03;4.97;;;;;;;17.91;100.00;101342.56;2072378;28;20193;-63
2023/05/29 02:44:27;;;;;;;7.87;4.40;;;;;;;17.91;100.00;101341.78;2073313;28;20190;-62
2023/05/29 02:45:28;;;;;;;15.13;5.00;;;;;;;17.89;100.00;101345.06;2064969;28;20232;-62
2023/05/29 02:46:28;;;;;;;8.70;4.33;;;;;;;17.87;100.00;101357.97;2065372;28;20181;-62
2023/05/29 02:47:29;;;;;;;8.03;4.70;;;;;;;17.53;100.00;101294.53;2065553;28;20195;-62
2023/05/29 02:48:29;;;;;;;15.27;4.50;;;;;;;17.85;100.00;101338.81;2073509;28;20653;-63
2023/05/29 02:49:30;;;;;;;11.53;4.37;;;;;;;17.85;100.00;101347.22;2072436;28;20201;-62
2023/05/29 02:50:30;;;;;;;15.93;4.63;;;;;;;17.82;100.00;101344.56;2072532;28;20187;-62
2023/05/29 02:51:32;;;;;;;17.60;4.93;;;;;;;17.87;100.00;101344.75;2072936;28;20291;-63
2023/05/29 02:52:32;;;;;;;17.40;5.03;;;;;;;17.83;100.00;101347.69;2069030;28;20193;-62
2023/05/29 02:53:33;;;;;;;12.00;4.57;;;;;;;17.75;100.00;101331.63;2064954;28;20936;-62
2023/05/29 02:54:33;;;;;;;15.63;4.30;;;;;;;17.80;100.00;101339.41;2066736;28;20193;-61
2023/05/29 02:55:35;;;;;;;14.30;4.63;;;;;;;17.71;100.00;101342.19;2072948;28;20187;-62
2023/05/29 02:56:36;;;;;;;11.43;4.80;;;;;;;17.70;100.00;101337.84;2073237;28;20182;-61
2023/05/29 02:57:36;;;;;;;10.33;4.60;;;;;;;17.73;100.00;101343.28;2080535;28;20443;-62
2023/05/29 02:58:36;;;;;;;8.07;4.33;;;;;;;17.72;100.00;101340.97;2073597;28;20220;-63
2023/05/29 02:59:37;;;;;;;11.40;4.70;;;;;;;17.71;100.00;101342.19;2070973;28;20204;-63
2023/05/29 03:00:38;;;;;;;12.70;5.10;;;;;;;16.75;100.00;101192.50;2072851;28;20185;-62
2023/05/29 03:01:38;;;;;;;22.17;5.20;;;;;;;17.70;100.00;101345.50;2072973;28;20193;-63
2023/05/29 03:02:39;;;;;;;15.70;5.03;;;;;;;17.72;100.00;101343.00;2073261;28;20554;-62
2023/05/29 03:03:39;;;;;;;13.57;4.63;;;;;;;17.70;100.00;101340.66;2071766;28;20686;-63
2023/05/29 03:04:40;;;;;;;12.80;4.77;;;;;;;17.03;100.00;101241.75;2064781;28;20191;-63
2023/05/29 03:05:40;;;;;;;12.13;4.47;;;;;;;17.73;100.00;101345.34;2073205;28;20564;-63
2023/05/29 03:06:41;;;;;;;14.13;5.03;;;;;;;17.73;100.00;101342.53;2073248;28;20678;-62
2023/05/29 03:07:41;;;;;;;12.87;4.73;;;;;;;17.73;100.00;101352.97;2066949;28;20186;-62
2023/05/29 03:08:44;;;;;;;17.13;5.03;;;;;;;17.73;100.00;101350.16;2070092;28;20341;-62
2023/05/29 03:09:45;;;;;;;11.27;4.30;;;;;;;17.71;100.00;101341.44;2068865;28;20248;-63
2023/05/29 03:10:47;;;;;;;12.93;5.23;;;;;;;17.68;100.00;101341.09;2067608;28;20951;-63
2023/05/29 03:11:51;;;;;;;16.33;4.80;;;;;;;17.66;100.00;101342.81;2072924;28;20305;-62
2023/05/29 03:12:52;;;;;;;17.50;4.97;;;;;;;17.52;100.00;101318.19;2073085;28;20453;-63
2023/05/29 03:13:52;;;;;;;19.50;5.07;;;;;;;17.72;100.00;101349.41;2073167;28;20477;-63
2023/05/29 03:14:53;;;;;;;12.27;4.63;;;;;;;17.73;100.00;101348.16;2064804;28;20235;-63
2023/05/29 03:15:56;;;;;;;15.83;4.93;;;;;;;17.77;100.00;101343.94;2071063;28;20207;-62
2023/05/29 03:16:57;;;;;;;12.83;4.73;;;;;;;17.76;100.00;101344.41;2067699;28;20202;-63
2023/05/29 03:17:57;;;;;;;13.10;5.70;;;;;;;17.73;100.00;101334.88;2070894;28;20444;-63
2023/05/29 03:18:57;;;;;;;13.70;4.90;;;;;;;17.75;100.00;101339.28;2069933;28;20214;-63
2023/05/29 03:19:58;;;;;;;7.10;4.03;;;;;;;17.77;100.00;101345.19;2065995;28;20188;-62
2023/05/29 03:20:58;;;;;;;13.57;4.93;;;;;;;17.74;100.00;101346.91;2072231;28;20173;-63
2023/05/29 03:21:59;;;;;;;15.17;4.80;;;;;;;17.72;100.00;101340.97;2064979;28;20186;-62
2023/05/29 03:22:59;;;;;;;11.37;4.80;;;;;;;17.77;100.00;101349.53;2065097;28;20189;-63
2023/05/29 03:24:00;;;;;;;13.57;4.87;;;;;;;17.77;100.00;101340.38;2071692;28;20219;-63
2023/05/29 03:25:04;;;;;;;16.70;5.10;;;;;;;17.74;100.00;101344.09;2072708;28;20207;-63
2023/05/29 03:26:05;;;;;;;18.17;5.10;;;;;;;17.76;100.00;101352.81;2067514;28;20597;-63
2023/05/29 03:27:05;;;;;;;25.30;5.20;;;;;;;17.77;100.00;101345.19;2069078;28;20497;-62
2023/05/29 03:28:06;;;;;;;18.50;4.97;;;;;;;17.75;100.00;101353.28;2070032;28;20650;-62
2023/05/29 03:29:07;;;;;;;14.23;4.63;;;;;;;17.73;100.00;101352.97;2066692;28;20190;-62
2023/05/29 03:30:09;;;;;;;16.93;5.03;;;;;;;17.73;100.00;101353.75;2071724;28;20185;-62
2023/05/29 03:31:10;;;;;;;14.03;4.30;;;;;;;17.70;100.00;101354.66;2065107;28;20236;-63
2023/05/29 03:32:10;;;;;;;14.47;4.53;;;;;;;17.63;100.00;101355.72;2064816;28;20520;-62
2023/05/29 03:33:10;;;;;;;14.93;4.97;;;;;;;17.63;100.00;101352.94;2071662;28;20205;-63
2023/05/29 03:34:11;;;;;;;15.50;4.97;;;;;;;17.56;100.00;101354.47;2067137;28;20208;-61
2023/05/29 03:35:11;;;;;;;11.97;5.23;;;;;;;17.52;100.00;101357.44;2064516;28;20287;-62
2023/05/29 03:36:12;;;;;;;15.17;5.10;;;;;;;17.49;100.00;101354.78;2064784;28;20197;-62
2023/05/29 03:37:12;;;;;;;9.40;4.80;;;;;;;17.43;100.00;101340.59;2064741;28;20576;-63
2023/05/29 03:38:12;;;;;;;11.27;5.17;;;;;;;17.50;100.00;101354.28;2065116;28;20186;-62
2023/05/29 03:39:13;;;;;;;13.07;5.00;;;;;;;17.52;100.00;101359.44;2072989;28;20630;-62
2023/05/29 03:40:14;;;;;;;12.30;5.20;;;;;;;17.57;100.00;101354.03;2072358;28;20216;-63
2023/05/29 03:41:14;;;;;;;10.43;5.17;;;;;;;17.34;100.00;101318.88;2066183;28;20729;-62
2023/05/29 03:42:15;;;;;;;11.93;5.33;;;;;;;17.60;100.00;101355.13;2071281;28;20243;-61
2023/05/29 03:43:15;;;;;;;8.40;5.23;;;;;;;17.63;100.00;101354.19;2076605;28;20270;-62
2023/05/29 03:44:15;;;;;;;15.10;5.40;;;;;;;17.69;100.00;101353.09;2072744;28;20188;-63
2023/05/29 03:45:16;;;;;;;13.07;5.00;;;;;;;17.75;100.00;101353.28;2072354;28;20189;-62
2023/05/29 03:46:16;;;;;;;9.33;5.17;;;;;;;17.81;100.00;101359.84;2072821;28;20270;-61
2023/05/29 03:47:17;;;;;;;13.37;5.43;;;;;;;17.85;100.00;101354.88;2072984;28;20566;-62
2023/05/29 03:48:17;;;;;;;17.63;5.60;;;;;;;17.83;100.00;101363.75;2072763;28;20200;-63
2023/05/29 03:49:18;;;;;;;14.03;4.93;;;;;;;17.85;100.00;101369.66;2072901;28;20209;-62
2023/05/29 03:50:18;;;;;;;16.97;5.70;;;;;;;17.87;100.00;101367.19;2072374;28;20196;-62
2023/05/29 03:51:19;;;;;;;10.97;5.53;;;;;;;17.80;100.00;101359.03;2072796;28;20248;-62
2023/05/29 03:52:19;;;;;;;12.10;5.63;;;;;;;17.93;100.00;101368.88;2072743;28;20196;-62
2023/05/29 03:53:19;;;;;;;11.30;5.20;;;;;;;17.51;100.00;101297.00;2073041;28;20177;-61
2023/05/29 03:54:20;;;;;;;12.80;5.33;;;;;;;18.01;100.00;101365.78;2071961;28;20674;-61
2023/05/29 03:55:21;;;;;;;16.60;6.07;;;;;;;17.48;100.00;101286.72;2071411;28;20185;-61
2023/05/29 03:56:21;;;;;;;14.23;5.30;;;;;;;18.09;100.00;101379.81;2071622;28;20650;-61
2023/05/29 03:57:22;;;;;;;14.90;5.50;;;;;;;17.62;100.00;101305.75;2072563;28;20819;-62
2023/05/29 03:58:22;;;;;;;5.90;2.80;;;;;;;17.92;100.00;101322.47;2073116;28;20192;-57
2023/05/29 03:59:22;;;;;;;13.10;3.60;;;;;;;19.02;100.00;101392.13;2073352;28;20174;-59
2023/05/29 04:00:23;;;;;;;11.17;3.63;;;;;;;19.52;100.00;101388.56;2073034;28;20205;-58
2023/05/29 04:01:24;;;;;;;11.60;3.20;;;;;;;19.66;100.00;101387.84;2072368;28;20193;-57
2023/05/29 04:02:24;;;;;;;5.47;2.83;;;;;;;19.87;100.00;101386.03;2072818;28;20657;-57
2023/05/29 04:03:24;;;;;;;12.03;4.60;;;;;;;20.08;100.00;101380.13;2065004;28;20217;-57
2023/05/29 04:04:25;;;;;;;4.87;2.80;;;;;;;20.22;100.00;101375.81;2065068;28;20633;-58
2023/05/29 04:05:25;;;;;;;6.23;3.17;;;;;;;20.33;100.00;101376.03;2064402;28;20195;-58
2023/05/29 04:06:26;;;;;;;7.17;2.87;;;;;;;20.50;100.00;101366.66;2065058;28;20190;-57
2023/05/29 04:07:26;;;;;;;7.63;4.37;;;;;;;20.43;100.00;101364.22;2068333;28;20280;-57
2023/05/29 04:08:27;;;;;;;8.77;4.00;;;;;;;20.40;100.00;101367.19;2073113;28;20181;-58
2023/05/29 04:09:27;;;;;;;6.97;3.90;;;;;;;20.29;100.00;101364.97;2073237;28;20260;-57
2023/05/29 04:10:28;;;;;;;8.70;4.13;;;;;;;20.26;100.00;101357.47;2073308;28;20232;-58
2023/05/29 04:11:28;;;;;;;7.67;4.40;;;;;;;20.15;100.00;101365.69;2073163;28;20174;-57
2023/05/29 04:12:28;;;;;;;7.50;4.03;;;;;;;20.18;100.00;101363.94;2076511;28;20272;-57
2023/05/29 04:13:29;;;;;;;7.87;3.30;;;;;;;20.43;100.00;101367.03;2077000;28;20272;-57
2023/05/29 04:14:29;;;;;;;11.33;4.57;;;;;;;20.57;100.00;101365.50;2072915;28;20173;-57
2023/05/29 04:15:30;;;;;;;9.20;4.10;;;;;;;20.56;100.00;101356.28;2072012;28;20205;-57
2023/05/29 04:16:30;;;;;;;5.60;2.70;;;;;;;20.83;100.00;101363.69;2064611;28;20185;-58
2023/05/29 04:17:31;;;;;;;8.43;2.90;;;;;;;20.87;100.00;101362.22;2072056;28;20624;-58
2023/05/29 04:18:31;;;;;;;8.10;3.97;;;;;;;21.07;100.00;101367.19;2078990;28;20239;-58
2023/05/29 04:19:32;;;;;;;7.37;3.40;;;;;;;21.08;100.00;101357.50;2075316;28;20667;-60
2023/05/29 04:20:32;;;;;;;8.07;4.23;;;;;;;20.83;100.00;101349.59;2072084;28;20194;-59
2023/05/29 04:21:32;;;;;;;8.33;4.23;;;;;;;20.83;100.00;101352.41;2069296;28;20186;-59
2023/05/29 04:22:33;;;;;;;6.03;3.00;;;;;;;20.93;100.00;101370.81;2071757;28;20185;-62
2023/05/29 04:23:34;;;;;;;11.37;4.57;;;;;;;21.00;100.00;101359.94;2081012;28;20610;-60
2023/05/29 04:24:35;;;;;;;9.17;4.33;;;;;;;20.99;100.00;101371.69;2081443;28;20559;-61
2023/05/29 04:25:36;;;;;;;8.60;4.40;;;;;;;21.07;100.00;101365.16;2081104;28;20561;-59
2023/05/29 04:26:40;;;;;;;7.63;3.27;;;;;;;21.04;100.00;101340.75;2080009;28;20208;-59
2023/05/29 04:27:41;;;;;;;8.33;3.93;;;;;;;21.34;100.00;101366.91;2075854;28;20604;-58
2023/05/29 04:28:43;;;;;;;7.63;3.93;;;;;;;21.43;100.00;101372.41;2077336;28;20423;-59
2023/05/29 04:29:43;;;;;;;8.63;3.83;;;;;;;21.61;100.00;101369.34;2079782;28;20226;-57
2023/05/29 04:30:44;;;;;;;10.00;3.43;;;;;;;21.71;100.00;101365.19;2071884;28;20173;-57
2023/05/29 04:31:45;;;;;;;9.63;3.00;;;;;;;21.91;100.00;101365.19;2071567;28;20217;-59
2023/05/29 04:32:46;;;;;;;6.60;3.50;;;;;;;22.00;100.00;101365.06;2072657;28;20632;-61
2023/05/29 04:33:47;;;;;;;7.87;4.03;;;;;;;22.11;100.00;101363.16;2072461;28;20213;-59
2023/05/29 04:34:47;;;;;;;7.40;3.00;;;;;;;22.16;100.00;101348.31;2072400;28;20186;-59
2023/05/29 04:35:48;;;;;;;11.37;3.97;;;;;;;22.29;100.00;101357.22;2072752;28;20174;-59
2023/05/29 04:36:49;;;;;;;19.13;6.40;;;;;;;22.30;100.00;101361.59;2071389;28;20275;-63
2023/05/29 04:37:49;;;;;;;9.27;4.70;;;;;;;22.19;100.00;101358.63;2073392;28;20440;-63
2023/05/29 04:38:51;;;;;;;16.37;5.93;;;;;;;22.09;100.00;101362.88;2067602;28;20215;-63
2023/05/29 04:39:51;;;;;;;14.40;5.80;;;;;;;21.97;100.00;101358.38;2066553;28;20194;-63
2023/05/29 04:40:52;;;;;;;12.47;5.17;;;;;;;21.79;100.00;101350.16;2066091;28;20194;-63